sensor_id;sensor_type;location;lat;lon;timestamp;P1;durP1;ratioP1;P2;durP2;ratioP2
71048;SDS011;58704;53.358;-6.238;2023-06-04T00:00:53;15.83;;;8.83;;
71048;SDS011;58704;53.358;-6.238;2023-06-04T00:03:18;16.73;;;8.63;;
71048;SDS011;58704;53.358;-6.238;2023-06-04T00:05:44;16.90;;;9.03;;
71048;SDS011;58704;53.358;-6.238;2023-06-04T00:08:09;16.63;;;10.07;;
71048;SDS011;58704;53.358;-6.238;2023-06-04T00:10:35;20.97;;;10.00;;
71048;SDS011;58704;53.358;-6.238;2023-06-04T00:13:01;17.63;;;9.52;;
71048;SDS011;58704;53.358;-6.238;2023-06-04T00:15:26;15.07;;;7.80;;
71048;SDS011;58704;53.358;-6.238;2023-06-04T00:17:51;15.27;;;9.10;;
71048;SDS011;58704;53.358;-6.238;2023-06-04T00:20:17;16.35;;;9.35;;
71048;SDS011;58704;53.358;-6.238;2023-06-04T00:22:43;17.20;;;8.80;;
71048;SDS011;58704;53.358;-6.238;2023-06-04T00:25:09;15.93;;;9.03;;
71048;SDS011;58704;53.358;-6.238;2023-06-04T00:27:34;16.13;;;9.23;;
71048;SDS011;58704;53.358;-6.238;2023-06-04T00:30:00;16.52;;;8.68;;
71048;SDS011;58704;53.358;-6.238;2023-06-04T00:32:25;17.17;;;8.73;;
71048;SDS011;58704;53.358;-6.238;2023-06-04T00:34:51;12.30;;;7.87;;
71048;SDS011;58704;53.358;-6.238;2023-06-04T00:37:17;16.63;;;8.23;;
71048;SDS011;58704;53.358;-6.238;2023-06-04T00:39:42;16.43;;;8.63;;
71048;SDS011;58704;53.358;-6.238;2023-06-04T00:42:08;17.65;;;8.52;;
71048;SDS011;58704;53.358;-6.238;2023-06-04T00:44:33;13.53;;;7.17;;
71048;SDS011;58704;53.358;-6.238;2023-06-04T00:47:01;17.35;;;8.30;;
71048;SDS011;58704;53.358;-6.238;2023-06-04T00:49:30;13.00;;;7.83;;
71048;SDS011;58704;53.358;-6.238;2023-06-04T00:51:55;11.68;;;7.60;;
71048;SDS011;58704;53.358;-6.238;2023-06-04T00:54:20;15.47;;;7.90;;
71048;SDS011;58704;53.358;-6.238;2023-06-04T00:56:47;14.67;;;7.87;;
71048;SDS011;58704;53.358;-6.238;2023-06-04T00:59:13;12.40;;;7.83;;
71048;SDS011;58704;53.358;-6.238;2023-06-04T01:01:46;9.90;;;7.53;;
71048;SDS011;58704;53.358;-6.238;2023-06-04T01:04:18;11.93;;;7.17;;
71048;SDS011;58704;53.358;-6.238;2023-06-04T01:06:49;10.45;;;6.93;;
71048;SDS011;58704;53.358;-6.238;2023-06-04T01:09:16;11.98;;;7.47;;
71048;SDS011;58704;53.358;-6.238;2023-06-04T01:11:41;15.53;;;8.40;;
71048;SDS011;58704;53.358;-6.238;2023-06-04T01:14:08;12.25;;;7.10;;
71048;SDS011;58704;53.358;-6.238;2023-06-04T01:17:21;14.20;;;7.10;;
71048;SDS011;58704;53.358;-6.238;2023-06-04T01:19:33;14.27;;;7.13;;
71048;SDS011;58704;53.358;-6.238;2023-06-04T01:24:58;12.05;;;7.05;;
71048;SDS011;58704;53.358;-6.238;2023-06-04T01:27:27;9.73;;;6.57;;
71048;SDS011;58704;53.358;-6.238;2023-06-04T01:29:53;12.27;;;6.90;;
71048;SDS011;58704;53.358;-6.238;2023-06-04T01:32:22;12.20;;;6.60;;
71048;SDS011;58704;53.358;-6.238;2023-06-04T01:34:48;12.90;;;7.05;;
71048;SDS011;58704;53.358;-6.238;2023-06-04T01:37:13;15.47;;;6.80;;
71048;SDS011;58704;53.358;-6.238;2023-06-04T01:39:41;15.45;;;7.10;;
71048;SDS011;58704;53.358;-6.238;2023-06-04T01:42:07;13.77;;;6.80;;
71048;SDS011;58704;53.358;-6.238;2023-06-04T01:44:33;13.95;;;7.20;;
71048;SDS011;58704;53.358;-6.238;2023-06-04T01:46:58;11.97;;;6.40;;
71048;SDS011;58704;53.358;-6.238;2023-06-04T01:49:24;11.17;;;6.47;;
71048;SDS011;58704;53.358;-6.238;2023-06-04T01:51:49;15.33;;;6.67;;
71048;SDS011;58704;53.358;-6.238;2023-06-04T01:54:14;12.13;;;7.00;;
71048;SDS011;58704;53.358;-6.238;2023-06-04T01:56:41;9.05;;;5.97;;
71048;SDS011;58704;53.358;-6.238;2023-06-04T01:59:06;13.23;;;7.00;;
71048;SDS011;58704;53.358;-6.238;2023-06-04T02:01:32;11.80;;;7.17;;
71048;SDS011;58704;53.358;-6.238;2023-06-04T02:03:58;10.45;;;6.65;;
71048;SDS011;58704;53.358;-6.238;2023-06-04T02:06:23;12.87;;;7.13;;
71048;SDS011;58704;53.358;-6.238;2023-06-04T02:08:50;9.98;;;6.85;;
71048;SDS011;58704;53.358;-6.238;2023-06-04T02:11:15;11.53;;;7.10;;
71048;SDS011;58704;53.358;-6.238;2023-06-04T02:13:40;12.13;;;7.10;;
71048;SDS011;58704;53.358;-6.238;2023-06-04T02:16:06;11.03;;;7.60;;
71048;SDS011;58704;53.358;-6.238;2023-06-04T02:18:31;14.70;;;6.87;;
71048;SDS011;58704;53.358;-6.238;2023-06-04T02:20:57;11.07;;;6.87;;
71048;SDS011;58704;53.358;-6.238;2023-06-04T02:23:23;10.38;;;6.80;;
71048;SDS011;58704;53.358;-6.238;2023-06-04T02:25:49;10.03;;;7.00;;
71048;SDS011;58704;53.358;-6.238;2023-06-04T02:28:14;14.77;;;7.30;;
71048;SDS011;58704;53.358;-6.238;2023-06-04T02:30:40;11.77;;;6.73;;
71048;SDS011;58704;53.358;-6.238;2023-06-04T02:33:06;15.43;;;7.22;;
71048;SDS011;58704;53.358;-6.238;2023-06-04T02:35:34;13.48;;;7.38;;
71048;SDS011;58704;53.358;-6.238;2023-06-04T02:38:00;13.83;;;7.27;;
71048;SDS011;58704;53.358;-6.238;2023-06-04T02:40:27;11.88;;;7.43;;
71048;SDS011;58704;53.358;-6.238;2023-06-04T02:42:53;12.43;;;6.95;;
71048;SDS011;58704;53.358;-6.238;2023-06-04T02:45:19;13.77;;;7.07;;
71048;SDS011;58704;53.358;-6.238;2023-06-04T02:47:44;14.43;;;7.33;;
71048;SDS011;58704;53.358;-6.238;2023-06-04T02:50:10;13.67;;;7.00;;
71048;SDS011;58704;53.358;-6.238;2023-06-04T02:52:36;11.02;;;6.32;;
71048;SDS011;58704;53.358;-6.238;2023-06-04T02:55:03;9.68;;;6.63;;
71048;SDS011;58704;53.358;-6.238;2023-06-04T02:57:29;17.33;;;6.17;;
71048;SDS011;58704;53.358;-6.238;2023-06-04T02:59:55;13.75;;;7.10;;
71048;SDS011;58704;53.358;-6.238;2023-06-04T03:02:21;9.38;;;6.05;;
71048;SDS011;58704;53.358;-6.238;2023-06-04T03:04:46;12.23;;;6.37;;
71048;SDS011;58704;53.358;-6.238;2023-06-04T03:07:13;12.20;;;6.80;;
71048;SDS011;58704;53.358;-6.238;2023-06-04T03:09:40;14.17;;;6.40;;
71048;SDS011;58704;53.358;-6.238;2023-06-04T03:12:05;9.87;;;6.10;;
71048;SDS011;58704;53.358;-6.238;2023-06-04T03:14:31;11.33;;;6.30;;
71048;SDS011;58704;53.358;-6.238;2023-06-04T03:16:58;9.45;;;6.20;;
71048;SDS011;58704;53.358;-6.238;2023-06-04T03:19:35;10.68;;;5.85;;
71048;SDS011;58704;53.358;-6.238;2023-06-04T03:22:05;13.33;;;5.87;;
71048;SDS011;58704;53.358;-6.238;2023-06-04T03:24:35;10.10;;;6.13;;
71048;SDS011;58704;53.358;-6.238;2023-06-04T03:27:04;9.30;;;5.95;;
71048;SDS011;58704;53.358;-6.238;2023-06-04T03:29:30;12.45;;;6.50;;
71048;SDS011;58704;53.358;-6.238;2023-06-04T03:31:57;12.43;;;6.45;;
71048;SDS011;58704;53.358;-6.238;2023-06-04T03:34:22;10.83;;;6.33;;
71048;SDS011;58704;53.358;-6.238;2023-06-04T03:36:54;10.65;;;6.30;;
71048;SDS011;58704;53.358;-6.238;2023-06-04T03:39:20;11.07;;;6.20;;
71048;SDS011;58704;53.358;-6.238;2023-06-04T03:41:46;10.63;;;6.47;;
71048;SDS011;58704;53.358;-6.238;2023-06-04T03:44:15;13.83;;;7.00;;
71048;SDS011;58704;53.358;-6.238;2023-06-04T03:46:41;14.60;;;6.43;;
71048;SDS011;58704;53.358;-6.238;2023-06-04T03:49:08;14.70;;;6.57;;
71048;SDS011;58704;53.358;-6.238;2023-06-04T03:51:34;12.10;;;6.78;;
71048;SDS011;58704;53.358;-6.238;2023-06-04T03:54:00;11.70;;;6.63;;
71048;SDS011;58704;53.358;-6.238;2023-06-04T03:56:25;12.07;;;6.80;;
71048;SDS011;58704;53.358;-6.238;2023-06-04T03:58:53;14.77;;;6.85;;
71048;SDS011;58704;53.358;-6.238;2023-06-04T04:01:19;10.68;;;6.18;;
71048;SDS011;58704;53.358;-6.238;2023-06-04T04:03:45;10.10;;;6.10;;
71048;SDS011;58704;53.358;-6.238;2023-06-04T04:06:13;10.95;;;6.20;;
71048;SDS011;58704;53.358;-6.238;2023-06-04T04:08:42;11.73;;;6.20;;
71048;SDS011;58704;53.358;-6.238;2023-06-04T04:11:08;10.68;;;6.50;;
71048;SDS011;58704;53.358;-6.238;2023-06-04T04:13:37;11.48;;;6.30;;
71048;SDS011;58704;53.358;-6.238;2023-06-04T04:16:02;11.30;;;6.13;;
71048;SDS011;58704;53.358;-6.238;2023-06-04T04:18:31;9.73;;;6.50;;
71048;SDS011;58704;53.358;-6.238;2023-06-04T04:20:57;14.90;;;6.93;;
71048;SDS011;58704;53.358;-6.238;2023-06-04T04:23:22;15.87;;;6.63;;
71048;SDS011;58704;53.358;-6.238;2023-06-04T04:25:48;13.02;;;7.13;;
71048;SDS011;58704;53.358;-6.238;2023-06-04T04:28:14;11.87;;;5.83;;
71048;SDS011;58704;53.358;-6.238;2023-06-04T04:30:42;9.98;;;6.20;;
71048;SDS011;58704;53.358;-6.238;2023-06-04T04:33:07;14.85;;;6.70;;
71048;SDS011;58704;53.358;-6.238;2023-06-04T04:35:33;10.03;;;6.50;;
71048;SDS011;58704;53.358;-6.238;2023-06-04T04:37:59;9.48;;;6.32;;
71048;SDS011;58704;53.358;-6.238;2023-06-04T04:40:28;10.68;;;6.30;;
71048;SDS011;58704;53.358;-6.238;2023-06-04T04:42:53;10.50;;;6.40;;
71048;SDS011;58704;53.358;-6.238;2023-06-04T04:45:19;16.87;;;6.63;;
71048;SDS011;58704;53.358;-6.238;2023-06-04T04:47:45;10.05;;;5.97;;
71048;SDS011;58704;53.358;-6.238;2023-06-04T04:50:11;10.35;;;6.22;;
71048;SDS011;58704;53.358;-6.238;2023-06-04T04:52:37;8.23;;;5.47;;
71048;SDS011;58704;53.358;-6.238;2023-06-04T04:55:03;10.17;;;5.60;;
71048;SDS011;58704;53.358;-6.238;2023-06-04T04:57:29;12.73;;;5.87;;
71048;SDS011;58704;53.358;-6.238;2023-06-04T04:59:54;13.98;;;5.40;;
71048;SDS011;58704;53.358;-6.238;2023-06-04T05:02:20;11.57;;;4.90;;
71048;SDS011;58704;53.358;-6.238;2023-06-04T05:04:45;10.80;;;5.03;;
71048;SDS011;58704;53.358;-6.238;2023-06-04T05:07:10;7.67;;;5.03;;
71048;SDS011;58704;53.358;-6.238;2023-06-04T05:09:36;9.53;;;5.23;;
71048;SDS011;58704;53.358;-6.238;2023-06-04T05:12:01;10.93;;;5.27;;
71048;SDS011;58704;53.358;-6.238;2023-06-04T05:14:28;7.05;;;4.40;;
71048;SDS011;58704;53.358;-6.238;2023-06-04T05:16:54;8.43;;;4.60;;
71048;SDS011;58704;53.358;-6.238;2023-06-04T05:19:21;7.43;;;4.30;;
71048;SDS011;58704;53.358;-6.238;2023-06-04T05:21:48;9.32;;;5.30;;
71048;SDS011;58704;53.358;-6.238;2023-06-04T05:24:13;13.50;;;5.40;;
71048;SDS011;58704;53.358;-6.238;2023-06-04T05:26:39;11.52;;;4.82;;
71048;SDS011;58704;53.358;-6.238;2023-06-04T05:29:05;9.48;;;4.30;;
71048;SDS011;58704;53.358;-6.238;2023-06-04T05:31:31;10.17;;;5.20;;
71048;SDS011;58704;53.358;-6.238;2023-06-04T05:34:00;9.82;;;4.72;;
71048;SDS011;58704;53.358;-6.238;2023-06-04T05:36:27;15.77;;;5.93;;
71048;SDS011;58704;53.358;-6.238;2023-06-04T05:38:52;9.27;;;5.10;;
71048;SDS011;58704;53.358;-6.238;2023-06-04T05:41:22;12.43;;;4.72;;
71048;SDS011;58704;53.358;-6.238;2023-06-04T05:43:53;8.93;;;4.07;;
71048;SDS011;58704;53.358;-6.238;2023-06-04T05:46:19;7.25;;;4.60;;
71048;SDS011;58704;53.358;-6.238;2023-06-04T05:48:46;11.98;;;4.63;;
71048;SDS011;58704;53.358;-6.238;2023-06-04T05:51:12;9.20;;;3.57;;
71048;SDS011;58704;53.358;-6.238;2023-06-04T05:53:38;9.98;;;4.63;;
71048;SDS011;58704;53.358;-6.238;2023-06-04T05:56:04;9.40;;;4.50;;
71048;SDS011;58704;53.358;-6.238;2023-06-04T05:58:29;10.67;;;4.40;;
71048;SDS011;58704;53.358;-6.238;2023-06-04T06:00:55;10.33;;;4.40;;
71048;SDS011;58704;53.358;-6.238;2023-06-04T06:03:21;8.85;;;3.88;;
71048;SDS011;58704;53.358;-6.238;2023-06-04T06:05:46;11.73;;;4.40;;
71048;SDS011;58704;53.358;-6.238;2023-06-04T06:08:13;9.73;;;4.20;;
71048;SDS011;58704;53.358;-6.238;2023-06-04T06:10:39;9.13;;;3.80;;
71048;SDS011;58704;53.358;-6.238;2023-06-04T06:13:04;6.72;;;3.78;;
71048;SDS011;58704;53.358;-6.238;2023-06-04T06:15:30;6.97;;;3.83;;
71048;SDS011;58704;53.358;-6.238;2023-06-04T06:17:55;8.23;;;4.03;;
71048;SDS011;58704;53.358;-6.238;2023-06-04T06:20:20;7.53;;;4.03;;
71048;SDS011;58704;53.358;-6.238;2023-06-04T06:22:47;6.67;;;3.70;;
71048;SDS011;58704;53.358;-6.238;2023-06-04T06:25:13;9.40;;;4.00;;
71048;SDS011;58704;53.358;-6.238;2023-06-04T06:27:40;6.90;;;3.65;;
71048;SDS011;58704;53.358;-6.238;2023-06-04T06:30:06;9.97;;;4.90;;
71048;SDS011;58704;53.358;-6.238;2023-06-04T06:32:35;12.70;;;5.57;;
71048;SDS011;58704;53.358;-6.238;2023-06-04T06:35:03;11.35;;;3.92;;
71048;SDS011;58704;53.358;-6.238;2023-06-04T06:37:29;8.70;;;4.10;;
71048;SDS011;58704;53.358;-6.238;2023-06-04T06:39:54;8.50;;;4.07;;
71048;SDS011;58704;53.358;-6.238;2023-06-04T06:42:20;9.50;;;4.40;;
71048;SDS011;58704;53.358;-6.238;2023-06-04T06:44:45;9.33;;;3.80;;
71048;SDS011;58704;53.358;-6.238;2023-06-04T06:47:11;9.27;;;4.27;;
71048;SDS011;58704;53.358;-6.238;2023-06-04T06:49:42;9.35;;;4.03;;
71048;SDS011;58704;53.358;-6.238;2023-06-04T06:52:10;11.38;;;4.15;;
71048;SDS011;58704;53.358;-6.238;2023-06-04T06:54:35;11.20;;;4.17;;
71048;SDS011;58704;53.358;-6.238;2023-06-04T06:57:01;8.20;;;4.27;;
71048;SDS011;58704;53.358;-6.238;2023-06-04T06:59:27;9.05;;;4.03;;
71048;SDS011;58704;53.358;-6.238;2023-06-04T07:01:53;9.25;;;4.07;;
71048;SDS011;58704;53.358;-6.238;2023-06-04T07:04:19;7.87;;;3.73;;
71048;SDS011;58704;53.358;-6.238;2023-06-04T07:06:44;8.63;;;3.70;;
71048;SDS011;58704;53.358;-6.238;2023-06-04T07:09:10;9.30;;;3.70;;
71048;SDS011;58704;53.358;-6.238;2023-06-04T07:11:35;8.90;;;3.83;;
71048;SDS011;58704;53.358;-6.238;2023-06-04T07:14:00;10.37;;;3.97;;
71048;SDS011;58704;53.358;-6.238;2023-06-04T07:16:29;10.82;;;3.90;;
71048;SDS011;58704;53.358;-6.238;2023-06-04T07:18:54;8.40;;;3.80;;
71048;SDS011;58704;53.358;-6.238;2023-06-04T07:21:21;11.97;;;4.20;;
71048;SDS011;58704;53.358;-6.238;2023-06-04T07:23:52;10.82;;;3.88;;
71048;SDS011;58704;53.358;-6.238;2023-06-04T07:26:26;11.20;;;4.30;;
71048;SDS011;58704;53.358;-6.238;2023-06-04T07:28:55;12.43;;;4.70;;
71048;SDS011;58704;53.358;-6.238;2023-06-04T07:31:22;9.68;;;3.40;;
71048;SDS011;58704;53.358;-6.238;2023-06-04T07:33:47;7.70;;;3.60;;
71048;SDS011;58704;53.358;-6.238;2023-06-04T07:36:13;8.38;;;3.97;;
71048;SDS011;58704;53.358;-6.238;2023-06-04T07:38:39;9.43;;;4.18;;
71048;SDS011;58704;53.358;-6.238;2023-06-04T07:41:07;9.20;;;4.47;;
71048;SDS011;58704;53.358;-6.238;2023-06-04T07:43:33;6.65;;;3.55;;
71048;SDS011;58704;53.358;-6.238;2023-06-04T07:46:00;9.05;;;3.45;;
71048;SDS011;58704;53.358;-6.238;2023-06-04T07:48:25;8.83;;;3.10;;
71048;SDS011;58704;53.358;-6.238;2023-06-04T07:50:56;7.28;;;3.55;;
71048;SDS011;58704;53.358;-6.238;2023-06-04T07:53:25;10.32;;;3.40;;
71048;SDS011;58704;53.358;-6.238;2023-06-04T07:55:53;7.87;;;3.47;;
71048;SDS011;58704;53.358;-6.238;2023-06-04T07:58:20;13.07;;;3.60;;
71048;SDS011;58704;53.358;-6.238;2023-06-04T08:00:45;7.35;;;2.92;;
71048;SDS011;58704;53.358;-6.238;2023-06-04T08:03:17;5.43;;;3.10;;
71048;SDS011;58704;53.358;-6.238;2023-06-04T08:05:43;9.75;;;3.40;;
71048;SDS011;58704;53.358;-6.238;2023-06-04T08:08:18;10.47;;;4.67;;
71048;SDS011;58704;53.358;-6.238;2023-06-04T08:10:49;9.48;;;3.95;;
71048;SDS011;58704;53.358;-6.238;2023-06-04T08:13:29;6.95;;;3.50;;
71048;SDS011;58704;53.358;-6.238;2023-06-04T08:16:04;8.18;;;3.33;;
71048;SDS011;58704;53.358;-6.238;2023-06-04T08:18:38;8.50;;;3.30;;
71048;SDS011;58704;53.358;-6.238;2023-06-04T08:21:04;10.87;;;3.60;;
71048;SDS011;58704;53.358;-6.238;2023-06-04T08:23:31;7.95;;;3.45;;
71048;SDS011;58704;53.358;-6.238;2023-06-04T08:25:57;10.40;;;3.40;;
71048;SDS011;58704;53.358;-6.238;2023-06-04T08:28:23;7.53;;;3.33;;
71048;SDS011;58704;53.358;-6.238;2023-06-04T08:30:55;10.68;;;3.40;;
71048;SDS011;58704;53.358;-6.238;2023-06-04T08:33:23;9.27;;;2.97;;
71048;SDS011;58704;53.358;-6.238;2023-06-04T08:35:49;7.78;;;3.22;;
71048;SDS011;58704;53.358;-6.238;2023-06-04T08:38:25;6.97;;;3.25;;
71048;SDS011;58704;53.358;-6.238;2023-06-04T08:44:26;6.97;;;3.33;;
71048;SDS011;58704;53.358;-6.238;2023-06-04T08:46:52;11.07;;;3.45;;
71048;SDS011;58704;53.358;-6.238;2023-06-04T08:49:19;8.20;;;3.53;;
71048;SDS011;58704;53.358;-6.238;2023-06-04T08:51:47;8.80;;;3.33;;
71048;SDS011;58704;53.358;-6.238;2023-06-04T08:54:13;6.67;;;3.00;;
71048;SDS011;58704;53.358;-6.238;2023-06-04T08:56:41;8.85;;;3.20;;
71048;SDS011;58704;53.358;-6.238;2023-06-04T08:59:09;11.67;;;3.20;;
71048;SDS011;58704;53.358;-6.238;2023-06-04T09:01:43;5.68;;;2.33;;
71048;SDS011;58704;53.358;-6.238;2023-06-04T09:04:18;6.95;;;2.47;;
71048;SDS011;58704;53.358;-6.238;2023-06-04T09:06:44;11.57;;;3.10;;
71048;SDS011;58704;53.358;-6.238;2023-06-04T09:09:12;6.07;;;2.70;;
71048;SDS011;58704;53.358;-6.238;2023-06-04T09:11:53;5.10;;;3.03;;
71048;SDS011;58704;53.358;-6.238;2023-06-04T09:14:21;9.25;;;3.05;;
71048;SDS011;58704;53.358;-6.238;2023-06-04T09:16:48;7.95;;;2.83;;
71048;SDS011;58704;53.358;-6.238;2023-06-04T09:19:18;7.93;;;3.33;;
71048;SDS011;58704;53.358;-6.238;2023-06-04T09:21:51;7.70;;;2.78;;
71048;SDS011;58704;53.358;-6.238;2023-06-04T09:24:45;6.83;;;2.90;;
71048;SDS011;58704;53.358;-6.238;2023-06-04T09:29:37;6.65;;;2.40;;
71048;SDS011;58704;53.358;-6.238;2023-06-04T09:32:03;5.60;;;2.55;;
71048;SDS011;58704;53.358;-6.238;2023-06-04T09:34:29;7.97;;;2.80;;
71048;SDS011;58704;53.358;-6.238;2023-06-04T09:36:55;4.07;;;2.38;;
71048;SDS011;58704;53.358;-6.238;2023-06-04T09:39:23;5.18;;;2.47;;
71048;SDS011;58704;53.358;-6.238;2023-06-04T09:41:59;5.00;;;2.20;;
71048;SDS011;58704;53.358;-6.238;2023-06-04T09:44:28;5.80;;;2.35;;
71048;SDS011;58704;53.358;-6.238;2023-06-04T09:46:57;7.55;;;2.35;;
71048;SDS011;58704;53.358;-6.238;2023-06-04T09:49:43;6.03;;;2.45;;
71048;SDS011;58704;53.358;-6.238;2023-06-04T09:52:13;5.07;;;2.57;;
71048;SDS011;58704;53.358;-6.238;2023-06-04T09:55:03;6.32;;;2.50;;
71048;SDS011;58704;53.358;-6.238;2023-06-04T09:57:33;6.13;;;2.95;;
71048;SDS011;58704;53.358;-6.238;2023-06-04T10:00:01;7.38;;;2.63;;
71048;SDS011;58704;53.358;-6.238;2023-06-04T10:02:30;8.15;;;2.65;;
71048;SDS011;58704;53.358;-6.238;2023-06-04T10:04:55;6.73;;;2.80;;
71048;SDS011;58704;53.358;-6.238;2023-06-04T10:07:25;6.30;;;2.63;;
71048;SDS011;58704;53.358;-6.238;2023-06-04T10:09:54;7.93;;;2.80;;
71048;SDS011;58704;53.358;-6.238;2023-06-04T10:12:21;10.23;;;2.87;;
71048;SDS011;58704;53.358;-6.238;2023-06-04T10:14:53;8.18;;;2.72;;
71048;SDS011;58704;53.358;-6.238;2023-06-04T10:17:22;5.55;;;2.88;;
71048;SDS011;58704;53.358;-6.238;2023-06-04T10:19:56;6.00;;;2.50;;
71048;SDS011;58704;53.358;-6.238;2023-06-04T10:22:25;7.25;;;2.67;;
71048;SDS011;58704;53.358;-6.238;2023-06-04T10:24:51;6.67;;;2.60;;
71048;SDS011;58704;53.358;-6.238;2023-06-04T10:27:17;7.47;;;2.67;;
71048;SDS011;58704;53.358;-6.238;2023-06-04T10:29:45;7.25;;;2.53;;
71048;SDS011;58704;53.358;-6.238;2023-06-04T10:32:21;7.03;;;2.53;;
71048;SDS011;58704;53.358;-6.238;2023-06-04T10:34:46;6.47;;;2.93;;
71048;SDS011;58704;53.358;-6.238;2023-06-04T10:40:49;11.75;;;2.47;;
71048;SDS011;58704;53.358;-6.238;2023-06-04T10:43:18;7.25;;;2.60;;
71048;SDS011;58704;53.358;-6.238;2023-06-04T10:45:54;8.68;;;2.85;;
71048;SDS011;58704;53.358;-6.238;2023-06-04T10:48:20;7.77;;;2.77;;
71048;SDS011;58704;53.358;-6.238;2023-06-04T10:50:52;8.80;;;2.90;;
71048;SDS011;58704;53.358;-6.238;2023-06-04T10:53:18;7.60;;;2.67;;
71048;SDS011;58704;53.358;-6.238;2023-06-04T10:55:45;7.75;;;2.67;;
71048;SDS011;58704;53.358;-6.238;2023-06-04T10:58:12;6.25;;;2.20;;
71048;SDS011;58704;53.358;-6.238;2023-06-04T11:00:38;7.07;;;2.50;;
71048;SDS011;58704;53.358;-6.238;2023-06-04T11:03:04;6.57;;;2.53;;
71048;SDS011;58704;53.358;-6.238;2023-06-04T11:05:42;3.75;;;2.00;;
71048;SDS011;58704;53.358;-6.238;2023-06-04T11:08:10;11.45;;;3.03;;
71048;SDS011;58704;53.358;-6.238;2023-06-04T11:10:40;8.77;;;2.78;;
71048;SDS011;58704;53.358;-6.238;2023-06-04T11:13:11;6.93;;;2.60;;
71048;SDS011;58704;53.358;-6.238;2023-06-04T11:15:49;7.25;;;2.60;;
71048;SDS011;58704;53.358;-6.238;2023-06-04T11:18:15;7.15;;;2.72;;
71048;SDS011;58704;53.358;-6.238;2023-06-04T11:20:47;7.85;;;2.50;;
71048;SDS011;58704;53.358;-6.238;2023-06-04T11:23:20;9.00;;;2.22;;
71048;SDS011;58704;53.358;-6.238;2023-06-04T11:25:46;5.63;;;1.90;;
71048;SDS011;58704;53.358;-6.238;2023-06-04T11:28:15;4.60;;;2.42;;
71048;SDS011;58704;53.358;-6.238;2023-06-04T11:31:02;8.25;;;2.30;;
71048;SDS011;58704;53.358;-6.238;2023-06-04T11:33:28;5.37;;;1.97;;
71048;SDS011;58704;53.358;-6.238;2023-06-04T11:35:55;5.93;;;2.10;;
71048;SDS011;58704;53.358;-6.238;2023-06-04T11:42:08;5.63;;;2.20;;
71048;SDS011;58704;53.358;-6.238;2023-06-04T11:44:44;5.53;;;1.92;;
71048;SDS011;58704;53.358;-6.238;2023-06-04T11:47:24;7.50;;;2.20;;
71048;SDS011;58704;53.358;-6.238;2023-06-04T11:49:56;6.82;;;2.45;;
71048;SDS011;58704;53.358;-6.238;2023-06-04T11:52:42;4.25;;;2.38;;
71048;SDS011;58704;53.358;-6.238;2023-06-04T11:55:17;4.32;;;2.50;;
71048;SDS011;58704;53.358;-6.238;2023-06-04T11:58:11;5.07;;;2.30;;
71048;SDS011;58704;53.358;-6.238;2023-06-04T12:00:46;6.30;;;2.58;;
71048;SDS011;58704;53.358;-6.238;2023-06-04T12:06:08;5.77;;;2.60;;
71048;SDS011;58704;53.358;-6.238;2023-06-04T12:08:49;4.55;;;2.42;;
71048;SDS011;58704;53.358;-6.238;2023-06-04T12:14:23;6.80;;;2.63;;
71048;SDS011;58704;53.358;-6.238;2023-06-04T12:16:58;6.70;;;2.58;;
71048;SDS011;58704;53.358;-6.238;2023-06-04T12:19:27;7.90;;;2.50;;
71048;SDS011;58704;53.358;-6.238;2023-06-04T12:22:32;4.47;;;2.47;;
71048;SDS011;58704;53.358;-6.238;2023-06-04T12:25:07;5.60;;;2.20;;
71048;SDS011;58704;53.358;-6.238;2023-06-04T12:27:33;9.15;;;2.72;;
71048;SDS011;58704;53.358;-6.238;2023-06-04T12:30:03;7.10;;;2.43;;
71048;SDS011;58704;53.358;-6.238;2023-06-04T12:32:34;6.43;;;2.77;;
71048;SDS011;58704;53.358;-6.238;2023-06-04T12:35:01;7.40;;;3.10;;
71048;SDS011;58704;53.358;-6.238;2023-06-04T12:37:27;6.53;;;2.60;;
71048;SDS011;58704;53.358;-6.238;2023-06-04T12:39:53;5.33;;;2.83;;
71048;SDS011;58704;53.358;-6.238;2023-06-04T12:42:19;7.53;;;3.00;;
71048;SDS011;58704;53.358;-6.238;2023-06-04T12:44:45;6.60;;;2.80;;
71048;SDS011;58704;53.358;-6.238;2023-06-04T12:47:11;6.63;;;3.00;;
71048;SDS011;58704;53.358;-6.238;2023-06-04T12:49:36;7.03;;;2.75;;
71048;SDS011;58704;53.358;-6.238;2023-06-04T12:52:02;6.33;;;3.20;;
71048;SDS011;58704;53.358;-6.238;2023-06-04T12:54:28;8.80;;;3.03;;
71048;SDS011;58704;53.358;-6.238;2023-06-04T12:56:55;8.02;;;3.30;;
71048;SDS011;58704;53.358;-6.238;2023-06-04T12:59:23;5.97;;;2.45;;
71048;SDS011;58704;53.358;-6.238;2023-06-04T13:01:50;7.53;;;3.20;;
71048;SDS011;58704;53.358;-6.238;2023-06-04T13:04:16;8.60;;;3.20;;
71048;SDS011;58704;53.358;-6.238;2023-06-04T13:06:41;7.17;;;2.70;;
71048;SDS011;58704;53.358;-6.238;2023-06-04T13:09:07;6.10;;;3.40;;
71048;SDS011;58704;53.358;-6.238;2023-06-04T13:11:39;8.00;;;2.80;;
71048;SDS011;58704;53.358;-6.238;2023-06-04T13:14:05;6.53;;;2.60;;
71048;SDS011;58704;53.358;-6.238;2023-06-04T13:16:31;9.20;;;3.28;;
71048;SDS011;58704;53.358;-6.238;2023-06-04T13:18:56;4.10;;;2.30;;
71048;SDS011;58704;53.358;-6.238;2023-06-04T13:21:31;8.47;;;2.93;;
71048;SDS011;58704;53.358;-6.238;2023-06-04T13:23:56;7.32;;;2.90;;
71048;SDS011;58704;53.358;-6.238;2023-06-04T13:26:22;6.07;;;2.70;;
71048;SDS011;58704;53.358;-6.238;2023-06-04T13:28:47;6.75;;;2.67;;
71048;SDS011;58704;53.358;-6.238;2023-06-04T13:31:13;5.03;;;2.43;;
71048;SDS011;58704;53.358;-6.238;2023-06-04T13:33:38;6.35;;;2.30;;
71048;SDS011;58704;53.358;-6.238;2023-06-04T13:36:04;9.00;;;2.90;;
71048;SDS011;58704;53.358;-6.238;2023-06-04T13:38:30;6.63;;;2.70;;
71048;SDS011;58704;53.358;-6.238;2023-06-04T13:40:56;3.95;;;2.40;;
71048;SDS011;58704;53.358;-6.238;2023-06-04T13:43:21;5.53;;;2.10;;
71048;SDS011;58704;53.358;-6.238;2023-06-04T13:45:47;7.57;;;2.60;;
71048;SDS011;58704;53.358;-6.238;2023-06-04T13:48:12;5.93;;;2.60;;
71048;SDS011;58704;53.358;-6.238;2023-06-04T13:50:38;6.90;;;2.43;;
71048;SDS011;58704;53.358;-6.238;2023-06-04T13:53:04;4.43;;;2.50;;
71048;SDS011;58704;53.358;-6.238;2023-06-04T13:55:29;4.60;;;2.20;;
71048;SDS011;58704;53.358;-6.238;2023-06-04T13:57:55;4.97;;;2.20;;
71048;SDS011;58704;53.358;-6.238;2023-06-04T14:00:20;4.03;;;2.53;;
71048;SDS011;58704;53.358;-6.238;2023-06-04T14:02:47;3.40;;;1.90;;
71048;SDS011;58704;53.358;-6.238;2023-06-04T14:05:14;3.25;;;2.40;;
71048;SDS011;58704;53.358;-6.238;2023-06-04T14:07:43;7.43;;;2.72;;
71048;SDS011;58704;53.358;-6.238;2023-06-04T14:10:09;5.03;;;2.30;;
71048;SDS011;58704;53.358;-6.238;2023-06-04T14:12:37;5.18;;;2.20;;
71048;SDS011;58704;53.358;-6.238;2023-06-04T14:15:04;3.73;;;2.03;;
71048;SDS011;58704;53.358;-6.238;2023-06-04T14:17:30;3.40;;;2.35;;
71048;SDS011;58704;53.358;-6.238;2023-06-04T14:19:56;3.67;;;2.30;;
71048;SDS011;58704;53.358;-6.238;2023-06-04T14:22:21;2.90;;;2.27;;
71048;SDS011;58704;53.358;-6.238;2023-06-04T14:24:46;5.27;;;2.20;;
71048;SDS011;58704;53.358;-6.238;2023-06-04T14:27:12;5.00;;;2.23;;
71048;SDS011;58704;53.358;-6.238;2023-06-04T14:29:38;3.35;;;2.58;;
71048;SDS011;58704;53.358;-6.238;2023-06-04T14:32:04;3.83;;;2.10;;
71048;SDS011;58704;53.358;-6.238;2023-06-04T14:34:30;4.43;;;2.43;;
71048;SDS011;58704;53.358;-6.238;2023-06-04T14:36:57;5.28;;;2.15;;
71048;SDS011;58704;53.358;-6.238;2023-06-04T14:39:24;3.97;;;2.17;;
71048;SDS011;58704;53.358;-6.238;2023-06-04T14:41:51;3.78;;;2.33;;
71048;SDS011;58704;53.358;-6.238;2023-06-04T14:44:17;4.45;;;2.20;;
71048;SDS011;58704;53.358;-6.238;2023-06-04T14:46:43;4.00;;;1.90;;
71048;SDS011;58704;53.358;-6.238;2023-06-04T14:49:08;3.47;;;2.00;;
71048;SDS011;58704;53.358;-6.238;2023-06-04T14:51:34;3.72;;;2.17;;
71048;SDS011;58704;53.358;-6.238;2023-06-04T14:53:59;5.35;;;2.08;;